Sandford, United Kingdom
Current Conditions -  °F | °C
As of 8:50 AM on Saturday 29 Nov 2014 (Local Time) from EGGD Reporting Station
Moderate Fog Moderate Fog  
Wind Chill: 41°   Ceiling: 100
Heat Index: 46°   Visibility: 0.09mi
Dew Point: 46°   Wind: 10mph
Humidity: 100%   Direction: 60°ENE
Pressure: 29.8"   Gusts: NA
Location:  51.33°N, 2.83°W
Report Text: EGGD 290850Z 06009KT 0150 R09/0275 FG OVC001 08/08 Q1009
Loading
Personal Weather Stations






























Interactive Weather Map New forecast layout! Learn more

10-Day Weather Forecast

Advertisements
Track Severe Weather on mobile